Terminal Aerodrome Forecast
Issued by NWS

Home | Current Version | Previous Version | Text Only | Print | Product List | Glossary On
Versions: 1 2 3 4 5 6 7 8 9 10 11 12 13 14 15 16 17 18 19 20
000
FTUS46 KSEW 191100
TAFBFI
TAF
KBFI 191120Z 1912/2012 16004KT P6SM BKN022 OVC050
     FM191900 19006KT P6SM BKN030 BKN050
     FM192200 22006KT P6SM SCT040 BKN060
     FM200100 33005KT P6SM SCT070 BKN120=

USA.gov is the U.S. government's official web portal to all federal, state and local government web resources and services.